Terminal Aerodrome Forecast
Issued by NWS

Home | Current Version | Previous Version | Text Only | Print | Product List | Glossary On
Versions: 1 2 3 4 5 6 7 8 9 10 11 12 13 14 15 16 17 18 19 20 21 22
078
FTUS46 KSEW 261120
TAFCLM
TAF
KCLM 261120Z 2612/2712 24005KT P6SM -RA SCT020 BKN050 OVC110
      TEMPO 2612/2615 BKN020 OVC050
     FM261500 VRB03KT 5SM -RA BR BKN020 OVC035
     FM261800 10005KT 4SM -RA BR SCT006 OVC020
     FM262100 10005KT 3SM -RA BR BKN006 OVC012
     FM270300 27006KT 5SM -SHRA BR BKN006 OVC012
     FM270600 24005KT P6SM VCSH FEW009 BKN018 OVC035 PROB30
      2706/2712 -SHRA=

USA.gov is the U.S. government's official web portal to all federal, state and local government web resources and services.